DLH1PL EDDK-LOWW
Flight info
| Callsign | DLH1PL |
|---|---|
| Flight time | N/A |
| Altitude | 35000 |
| Route | KUMIK1R/31R KUMIK L603 TESGA DCT ESATI DCT BARSU DCT EKSOS DCT LULAR DCT RUDAP DCT BUDEX BUDEX2W |
| Aircraft | A320/M-V/N |
Departure
| Time | 2026-04-20 15:46 |
|---|---|
| Airport | Cologne Bonn Airport (EDDK) |
Arrival
| Time | N/A |
|---|---|
| Airport | Vienna International Airport (LOWW) |
| Time | Latitude | Longitude | Altitude | Speed | Heading |
|---|---|---|---|---|---|
| 2026-04-20 15:21 | 50.87939 | 7.12459 | 232 ft | 0 kts | 260° |
| 2026-04-20 15:32 | 50.87940 | 7.12472 | 230 ft | 3 kts | 253° |
| 2026-04-20 15:32 | 50.87944 | 7.12492 | 233 ft | 3 kts | 179° |
| 2026-04-20 15:32 | 50.87949 | 7.12491 | 234 ft | 0 kts | 143° |
| 2026-04-20 15:33 | 50.87950 | 7.12498 | 234 ft | 1 kts | 99° |
| 2026-04-20 15:33 | 50.87954 | 7.12539 | 231 ft | 4 kts | 82° |
| 2026-04-20 15:34 | 50.87949 | 7.12567 | 230 ft | 2 kts | 122° |
| 2026-04-20 15:34 | 50.87947 | 7.12571 | 233 ft | 0 kts | 130° |
| 2026-04-20 15:35 | 50.87943 | 7.12578 | 232 ft | 5 kts | 131° |
| 2026-04-20 15:35 | 50.87894 | 7.12610 | 230 ft | 8 kts | 178° |
| 2026-04-20 15:36 | 50.87844 | 7.12612 | 230 ft | 6 kts | 168° |
| 2026-04-20 15:36 | 50.87809 | 7.12641 | 230 ft | 5 kts | 144° |
| 2026-04-20 15:36 | 50.87784 | 7.12676 | 230 ft | 7 kts | 137° |
| 2026-04-20 15:36 | 50.87751 | 7.12723 | 230 ft | 6 kts | 139° |
| 2026-04-20 15:37 | 50.87724 | 7.12762 | 230 ft | 6 kts | 137° |
| 2026-04-20 15:37 | 50.87691 | 7.12811 | 230 ft | 6 kts | 137° |
| 2026-04-20 15:37 | 50.87663 | 7.12851 | 231 ft | 7 kts | 138° |
| 2026-04-20 15:37 | 50.87622 | 7.12910 | 230 ft | 7 kts | 136° |
| 2026-04-20 15:38 | 50.87588 | 7.12960 | 230 ft | 6 kts | 137° |
| 2026-04-20 15:38 | 50.87556 | 7.13007 | 230 ft | 6 kts | 137° |
| 2026-04-20 15:38 | 50.87533 | 7.13040 | 231 ft | 3 kts | 137° |
| 2026-04-20 15:38 | 50.87503 | 7.13084 | 232 ft | 5 kts | 137° |
| 2026-04-20 15:39 | 50.87469 | 7.13133 | 232 ft | 12 kts | 137° |
| 2026-04-20 15:39 | 50.87401 | 7.13231 | 232 ft | 13 kts | 137° |
| 2026-04-20 15:39 | 50.87328 | 7.13336 | 234 ft | 19 kts | 137° |
| 2026-04-20 15:39 | 50.87228 | 7.13482 | 237 ft | 18 kts | 137° |
| 2026-04-20 15:40 | 50.87143 | 7.13606 | 239 ft | 15 kts | 137° |
| 2026-04-20 15:40 | 50.87076 | 7.13703 | 241 ft | 11 kts | 138° |
| 2026-04-20 15:40 | 50.87026 | 7.13775 | 242 ft | 8 kts | 137° |
| 2026-04-20 15:40 | 50.86983 | 7.13838 | 243 ft | 9 kts | 137° |
| 2026-04-20 15:41 | 50.86933 | 7.13911 | 243 ft | 10 kts | 137° |
| 2026-04-20 15:41 | 50.86872 | 7.13999 | 244 ft | 11 kts | 138° |
| 2026-04-20 15:41 | 50.86822 | 7.14071 | 248 ft | 14 kts | 136° |
| 2026-04-20 15:41 | 50.86729 | 7.14152 | 253 ft | 13 kts | 150° |
| 2026-04-20 15:42 | 50.86661 | 7.14243 | 257 ft | 16 kts | 137° |
| 2026-04-20 15:42 | 50.86569 | 7.14378 | 258 ft | 17 kts | 138° |
| 2026-04-20 15:42 | 50.86459 | 7.14536 | 261 ft | 28 kts | 137° |
| 2026-04-20 15:42 | 50.86308 | 7.14754 | 266 ft | 29 kts | 137° |
| 2026-04-20 15:43 | 50.86158 | 7.14972 | 272 ft | 29 kts | 137° |
| 2026-04-20 15:43 | 50.86014 | 7.15179 | 277 ft | 28 kts | 138° |
| 2026-04-20 15:43 | 50.85881 | 7.15372 | 285 ft | 24 kts | 137° |
| 2026-04-20 15:43 | 50.85753 | 7.15559 | 295 ft | 26 kts | 137° |
| 2026-04-20 15:44 | 50.85627 | 7.15742 | 298 ft | 23 kts | 138° |
| 2026-04-20 15:44 | 50.85512 | 7.15908 | 299 ft | 25 kts | 136° |
| 2026-04-20 15:44 | 50.85389 | 7.16088 | 303 ft | 23 kts | 137° |
| 2026-04-20 15:44 | 50.85339 | 7.16287 | 308 ft | 17 kts | 86° |
| 2026-04-20 15:45 | 50.85378 | 7.16440 | 311 ft | 14 kts | 48° |
| 2026-04-20 15:45 | 50.85454 | 7.16508 | 314 ft | 12 kts | 15° |
| 2026-04-20 15:45 | 50.85548 | 7.16504 | 311 ft | 16 kts | 345° |
| 2026-04-20 15:45 | 50.85662 | 7.16363 | 311 ft | 30 kts | 317° |
| 2026-04-20 15:46 | 50.85988 | 7.15893 | 298 ft | 94 kts | 317° |
| 2026-04-20 15:46 | 50.86609 | 7.14992 | 263 ft | 145 kts | 317° |
| 2026-04-20 15:46 | 50.87411 | 7.13835 | 658 ft | 153 kts | 317° |
| 2026-04-20 15:46 | 50.88193 | 7.12698 | 1440 ft | 154 kts | 319° |
| 2026-04-20 15:47 | 50.89055 | 7.11559 | 1821 ft | 175 kts | 333° |
| 2026-04-20 15:47 | 50.89869 | 7.11134 | 1935 ft | 191 kts | 353° |
| 2026-04-20 15:47 | 50.91631 | 7.11917 | 2398 ft | 214 kts | 34° |
| 2026-04-20 15:47 | 50.92805 | 7.13353 | 3230 ft | 210 kts | 33° |
| 2026-04-20 15:48 | 50.93854 | 7.15050 | 3780 ft | 229 kts | 56° |
| 2026-04-20 15:48 | 50.94645 | 7.17405 | 4105 ft | 253 kts | 60° |
| 2026-04-20 15:48 | 50.95454 | 7.19948 | 4795 ft | 260 kts | 61° |
| 2026-04-20 15:48 | 50.96266 | 7.22570 | 5680 ft | 262 kts | 62° |
| 2026-04-20 15:49 | 50.96802 | 7.24297 | 6218 ft | 265 kts | 61° |
| 2026-04-20 15:49 | 50.97474 | 7.28041 | 7208 ft | 274 kts | 89° |
| 2026-04-20 15:49 | 50.97395 | 7.30061 | 7736 ft | 276 kts | 93° |
| 2026-04-20 15:49 | 50.97221 | 7.33126 | 8551 ft | 279 kts | 94° |
| 2026-04-20 15:50 | 50.96979 | 7.37209 | 9628 ft | 282 kts | 94° |
| 2026-04-20 15:50 | 50.96853 | 7.39312 | 10174 ft | 283 kts | 94° |
| 2026-04-20 15:50 | 50.96665 | 7.42496 | 10530 ft | 301 kts | 94° |
| 2026-04-20 15:50 | 50.96464 | 7.45933 | 10696 ft | 324 kts | 94° |
| 2026-04-20 15:51 | 50.96250 | 7.49580 | 11071 ft | 338 kts | 94° |
| 2026-04-20 15:51 | 50.96027 | 7.53314 | 11708 ft | 342 kts | 94° |
| 2026-04-20 15:51 | 50.95796 | 7.57114 | 12400 ft | 345 kts | 94° |
| 2026-04-20 15:51 | 50.95561 | 7.60943 | 13094 ft | 348 kts | 95° |
| 2026-04-20 15:52 | 50.95328 | 7.64772 | 13766 ft | 350 kts | 95° |
| 2026-04-20 15:52 | 50.95092 | 7.68639 | 14093 ft | 353 kts | 94° |
| 2026-04-20 15:52 | 50.94853 | 7.72537 | 14654 ft | 356 kts | 95° |
| 2026-04-20 15:53 | 50.94178 | 7.80354 | 15833 ft | 362 kts | 105° |
| 2026-04-20 15:53 | 50.93273 | 7.84093 | 16397 ft | 366 kts | 116° |
| 2026-04-20 15:53 | 50.91944 | 7.87561 | 16968 ft | 370 kts | 122° |
| 2026-04-20 15:53 | 50.90516 | 7.90973 | 17511 ft | 373 kts | 122° |
| 2026-04-20 15:54 | 50.89075 | 7.94414 | 18054 ft | 376 kts | 122° |
| 2026-04-20 15:54 | 50.87620 | 7.97881 | 18565 ft | 379 kts | 122° |
| 2026-04-20 15:54 | 50.86156 | 8.01364 | 19057 ft | 381 kts | 122° |
| 2026-04-20 15:54 | 50.84685 | 8.04859 | 19576 ft | 382 kts | 122° |
| 2026-04-20 15:55 | 50.83215 | 8.08356 | 20106 ft | 382 kts | 123° |
| 2026-04-20 15:55 | 50.81744 | 8.11859 | 20630 ft | 383 kts | 123° |
| 2026-04-20 15:55 | 50.80268 | 8.15369 | 21122 ft | 384 kts | 123° |
| 2026-04-20 15:55 | 50.78805 | 8.18844 | 21596 ft | 386 kts | 123° |